createdAt,value
2018-10-19T00:00:24.445Z,3.93
2018-10-19T00:02:52.506Z,3.37
2018-10-19T00:05:20.370Z,3.17
2018-10-19T00:07:48.210Z,4.17
2018-10-19T00:10:16.039Z,3.43
2018-10-19T00:12:43.889Z,1.63
2018-10-19T00:15:11.739Z,6.10
2018-10-19T00:17:39.582Z,3.57
2018-10-19T00:20:07.793Z,5.90
2018-10-19T00:22:35.714Z,4.80
2018-10-19T00:27:31.480Z,6.87
2018-10-19T00:29:59.293Z,5.37
2018-10-19T00:32:27.357Z,13.47
2018-10-19T00:34:55.203Z,6.30
2018-10-19T00:37:24.280Z,4.43
2018-10-19T00:39:52.358Z,6.57
2018-10-19T00:42:20.180Z,10.47
2018-10-19T00:44:47.997Z,4.23
2018-10-19T00:47:17.094Z,3.63
2018-10-19T00:49:44.817Z,8.77
2018-10-19T00:52:12.922Z,7.37
2018-10-19T00:54:40.793Z,8.07
2018-10-19T00:57:08.903Z,4.60
2018-10-19T01:02:34.022Z,7.27
2018-10-19T01:05:52.699Z,4.93
2018-10-19T01:08:20.817Z,7.77
2018-10-19T01:10:48.853Z,5.23
2018-10-19T01:13:16.878Z,3.73
2018-10-19T01:15:44.834Z,6.73
2018-10-19T01:18:13.092Z,4.87
2018-10-19T01:20:41.297Z,5.10
2018-10-19T01:23:09.694Z,7.03
2018-10-19T01:25:40.551Z,5.00
2018-10-19T01:28:09.180Z,5.00
2018-10-19T01:30:37.457Z,4.80
2018-10-19T01:33:05.712Z,4.53
2018-10-19T01:35:33.847Z,5.13
2018-10-19T01:38:02.442Z,8.33
2018-10-19T01:40:30.710Z,7.37
2018-10-19T01:42:58.864Z,9.40
2018-10-19T01:45:28.108Z,12.97
2018-10-19T01:47:56.173Z,11.27
2018-10-19T01:50:24.256Z,10.37
2018-10-19T01:52:52.735Z,5.53
2018-10-19T01:55:20.696Z,5.73
2018-10-19T01:57:48.808Z,6.10
2018-10-19T02:00:16.722Z,9.40
2018-10-19T02:02:44.878Z,6.40
2018-10-19T02:05:13.277Z,7.27
2018-10-19T02:07:41.310Z,8.60
2018-10-19T02:10:09.342Z,7.93
2018-10-19T02:12:37.272Z,3.63
2018-10-19T02:15:06.386Z,8.17
2018-10-19T02:17:34.271Z,5.83
2018-10-19T02:20:02.332Z,6.63
2018-10-19T02:22:30.129Z,7.30
2018-10-19T02:25:05.891Z,9.20
2018-10-19T02:27:34.689Z,7.23
2018-10-19T02:30:02.562Z,3.50
2018-10-19T02:32:30.479Z,6.20
2018-10-19T02:34:59.472Z,4.70
2018-10-19T02:37:27.303Z,3.87
2018-10-19T02:39:55.305Z,5.13
2018-10-19T02:42:23.387Z,7.23
2018-10-19T02:44:52.536Z,9.23
2018-10-19T02:47:20.541Z,6.43
2018-10-19T02:49:48.385Z,7.07
2018-10-19T02:52:16.315Z,7.53
2018-10-19T02:54:44.338Z,7.97
2018-10-19T02:57:12.244Z,7.47
2018-10-19T02:59:40.069Z,9.77
2018-10-19T03:02:08.065Z,6.70
2018-10-19T03:04:35.994Z,9.77
2018-10-19T03:07:04.484Z,4.63
2018-10-19T03:09:32.329Z,6.73
2018-10-19T03:12:00.248Z,9.47
2018-10-19T03:14:28.335Z,9.70
2018-10-19T03:16:57.393Z,5.77
2018-10-19T03:19:25.271Z,8.13
2018-10-19T03:21:53.405Z,7.77
2018-10-19T03:24:48.843Z,8.73
2018-10-19T03:27:17.012Z,7.40
2018-10-19T03:29:45.017Z,8.77
2018-10-19T03:32:13.100Z,7.80
2018-10-19T03:35:15.134Z,9.10
2018-10-19T03:37:43.277Z,11.60
2018-10-19T03:40:11.362Z,8.40
2018-10-19T03:42:39.204Z,10.37
2018-10-19T03:45:07.563Z,8.47
2018-10-19T03:47:35.767Z,7.50
2018-10-19T03:50:03.745Z,14.03
2018-10-19T03:52:31.710Z,8.93
2018-10-19T03:54:59.577Z,7.37
2018-10-19T03:57:27.398Z,13.13
2018-10-19T03:59:55.531Z,9.27
2018-10-19T04:02:23.553Z,11.67
2018-10-19T04:04:51.662Z,9.57
2018-10-19T04:07:19.675Z,8.10
2018-10-19T04:09:47.740Z,7.83
2018-10-19T04:12:15.851Z,7.77
2018-10-19T04:15:31.402Z,6.93
2018-10-19T04:18:03.863Z,7.90
2018-10-19T04:20:31.805Z,11.47
2018-10-19T04:23:30.401Z,7.77
2018-10-19T04:25:58.531Z,17.17
2018-10-19T04:28:26.557Z,10.57
2018-10-19T04:30:54.475Z,9.57
2018-10-19T04:33:22.356Z,8.17
2018-10-19T04:35:50.217Z,8.87
2018-10-19T04:38:18.094Z,10.17
2018-10-19T04:40:45.962Z,36.53
2018-10-19T04:43:14.024Z,13.20
2018-10-19T04:45:41.862Z,10.23
2018-10-19T04:48:09.761Z,10.97
2018-10-19T04:50:37.865Z,7.20
2018-10-19T04:53:05.948Z,9.40
2018-10-19T04:55:33.766Z,11.10
2018-10-19T04:58:01.636Z,6.90
2018-10-19T05:00:29.506Z,10.93
2018-10-19T05:02:57.375Z,10.37
2018-10-19T05:05:25.321Z,19.30
2018-10-19T05:07:53.047Z,12.93
2018-10-19T05:10:22.194Z,9.40
2018-10-19T05:12:50.291Z,10.60
2018-10-19T05:15:18.178Z,11.80
2018-10-19T05:17:46.054Z,8.00
2018-10-19T05:20:16.179Z,8.53
2018-10-19T05:22:44.204Z,9.40
2018-10-19T05:25:12.875Z,10.97
2018-10-19T05:27:40.915Z,11.97
2018-10-19T05:30:11.316Z,12.83
2018-10-19T05:32:39.864Z,10.90
2018-10-19T05:35:07.823Z,22.07
2018-10-19T05:37:36.245Z,12.30
2018-10-19T05:40:04.749Z,10.80
2018-10-19T05:42:36.158Z,10.97
2018-10-19T05:45:05.147Z,10.97
2018-10-19T05:47:32.983Z,12.98
2018-10-19T05:50:00.834Z,16.77
2018-10-19T05:52:29.874Z,12.07
2018-10-19T05:54:57.740Z,17.97
2018-10-19T05:57:25.557Z,17.57
2018-10-19T05:59:53.432Z,10.93
2018-10-19T06:02:21.634Z,13.87
2018-10-19T06:04:49.407Z,12.97
2018-10-19T06:07:17.226Z,14.57
2018-10-19T06:09:47.224Z,16.53
2018-10-19T06:12:15.357Z,17.00
2018-10-19T06:14:44.415Z,17.97
2018-10-19T06:17:12.734Z,17.63
2018-10-19T06:19:40.880Z,17.37
2018-10-19T06:22:08.796Z,16.47
2018-10-19T06:24:36.826Z,11.63
2018-10-19T06:27:05.183Z,18.23
2018-10-19T06:29:33.193Z,15.67
2018-10-19T06:32:01.285Z,13.00
2018-10-19T06:34:29.502Z,16.90
2018-10-19T06:36:57.614Z,13.57
2018-10-19T06:39:25.465Z,11.90
2018-10-19T06:41:53.735Z,12.13
2018-10-19T06:44:21.822Z,18.67
2018-10-19T06:46:49.741Z,21.93
2018-10-19T06:49:17.742Z,15.33
2018-10-19T06:51:46.898Z,17.20
2018-10-19T06:54:14.836Z,19.43
2018-10-19T06:56:42.770Z,15.90
2018-10-19T06:59:11.006Z,18.10
2018-10-19T07:01:38.743Z,14.83
2018-10-19T07:04:06.646Z,15.97
2018-10-19T07:06:34.659Z,16.40
2018-10-19T07:09:03.932Z,16.30
2018-10-19T07:11:31.913Z,20.20
2018-10-19T07:13:59.915Z,23.83
2018-10-19T07:16:27.779Z,16.80
2018-10-19T07:18:55.683Z,21.80
2018-10-19T07:21:23.562Z,14.27
2018-10-19T07:23:51.964Z,23.60
2018-10-19T07:26:19.849Z,13.47
2018-10-19T07:28:47.729Z,22.00
2018-10-19T07:31:15.566Z,23.13
2018-10-19T07:33:43.425Z,17.57
2018-10-19T07:36:11.348Z,18.17
2018-10-19T07:38:40.221Z,19.53
2018-10-19T07:41:08.171Z,17.70
2018-10-19T07:43:36.014Z,18.20
2018-10-19T07:46:04.089Z,32.07
2018-10-19T07:48:32.071Z,15.17
2018-10-19T07:51:00.435Z,14.67
2018-10-19T07:53:28.340Z,15.13
2018-10-19T07:55:56.243Z,16.10
2018-10-19T07:58:24.055Z,18.37
2018-10-19T08:00:52.037Z,11.93
2018-10-19T08:03:19.979Z,17.33
2018-10-19T08:05:48.071Z,12.73
2018-10-19T08:08:16.153Z,16.90
2018-10-19T08:10:44.397Z,17.53
2018-10-19T08:13:12.311Z,14.97
2018-10-19T08:15:40.317Z,17.60
2018-10-19T08:18:08.146Z,16.63
2018-10-19T08:20:36.056Z,13.83
2018-10-19T08:23:04.077Z,24.20
2018-10-19T08:25:31.993Z,18.17
2018-10-19T08:27:59.865Z,12.57
2018-10-19T08:30:28.756Z,12.97
2018-10-19T08:32:56.824Z,13.77
2018-10-19T08:35:24.886Z,12.93
2018-10-19T08:37:53.633Z,14.80
2018-10-19T08:40:22.570Z,13.20
2018-10-19T08:42:50.579Z,14.43
2018-10-19T08:45:19.085Z,15.30
2018-10-19T08:47:46.995Z,12.70
2018-10-19T08:50:14.919Z,13.93
2018-10-19T08:52:42.796Z,13.37
2018-10-19T08:55:10.687Z,15.13
2018-10-19T08:57:38.557Z,15.53
2018-10-19T09:00:08.288Z,12.17
2018-10-19T09:02:36.143Z,12.80
2018-10-19T09:05:04.239Z,13.67
2018-10-19T09:07:32.184Z,13.67
2018-10-19T09:10:00.109Z,14.67
2018-10-19T09:12:28.466Z,13.63
2018-10-19T09:14:57.975Z,13.27
2018-10-19T09:17:27.021Z,16.47
2018-10-19T09:20:18.871Z,17.83
2018-10-19T09:22:46.738Z,12.33
2018-10-19T09:25:14.893Z,15.17
2018-10-19T09:27:42.951Z,12.70
2018-10-19T09:30:10.914Z,16.10
2018-10-19T09:32:38.812Z,17.00
2018-10-19T09:35:07.100Z,21.30
2018-10-19T09:37:34.877Z,15.63
2018-10-19T09:40:03.056Z,16.77
2018-10-19T09:42:31.046Z,16.70
2018-10-19T09:44:59.012Z,18.30
2018-10-19T09:47:27.298Z,18.57
2018-10-19T09:49:55.331Z,16.80
2018-10-19T09:52:23.535Z,16.90
2018-10-19T09:54:52.711Z,21.00
2018-10-19T09:57:20.515Z,18.00
2018-10-19T09:59:48.407Z,25.07
2018-10-19T10:02:16.658Z,21.47
2018-10-19T10:04:44.515Z,19.67
2018-10-19T10:07:12.539Z,21.30
2018-10-19T10:09:40.474Z,19.63
2018-10-19T10:12:08.361Z,25.03
2018-10-19T10:14:36.616Z,24.37
2018-10-19T10:17:05.016Z,22.17
2018-10-19T10:19:59.570Z,22.30
2018-10-19T10:22:27.420Z,21.33
2018-10-19T10:24:55.531Z,14.70
2018-10-19T10:27:23.788Z,21.07
2018-10-19T10:29:51.888Z,19.20
2018-10-19T10:32:20.931Z,20.70
2018-10-19T10:34:48.715Z,21.97
2018-10-19T10:37:16.865Z,20.97
2018-10-19T10:39:44.773Z,20.00
2018-10-19T10:42:59.975Z,24.00
2018-10-19T10:45:27.985Z,26.40
2018-10-19T10:47:55.776Z,20.73
2018-10-19T10:50:23.941Z,21.83
2018-10-19T10:52:51.797Z,27.37
2018-10-19T10:55:19.845Z,25.30
2018-10-19T10:57:47.992Z,25.27
2018-10-19T11:00:16.287Z,20.27
2018-10-19T11:02:44.279Z,20.07
2018-10-19T11:05:12.178Z,18.93
2018-10-19T11:07:40.269Z,25.40
2018-10-19T11:10:08.587Z,28.17
2018-10-19T11:12:36.824Z,20.77
2018-10-19T11:15:05.617Z,24.77
2018-10-19T11:17:33.626Z,20.63
2018-10-19T11:20:01.520Z,14.53
2018-10-19T11:22:29.734Z,22.13
2018-10-19T11:24:58.772Z,23.67
2018-10-19T11:27:26.663Z,19.33
2018-10-19T11:29:54.557Z,21.50
2018-10-19T11:32:22.638Z,20.20
2018-10-19T11:34:50.870Z,19.10
2018-10-19T11:37:19.037Z,19.33
2018-10-19T11:39:58.946Z,19.33
2018-10-19T11:42:26.767Z,19.37
2018-10-19T11:44:54.592Z,25.10
2018-10-19T11:47:22.516Z,17.97
2018-10-19T11:49:50.387Z,25.30
2018-10-19T11:52:18.342Z,20.13
2018-10-19T11:54:46.357Z,22.47
2018-10-19T11:57:14.418Z,22.50
2018-10-19T11:59:42.442Z,20.83
2018-10-19T12:02:10.755Z,19.40
2018-10-19T12:04:39.436Z,19.40
2018-10-19T12:07:07.836Z,23.47
2018-10-19T12:09:35.819Z,20.03
2018-10-19T12:12:04.353Z,19.13
2018-10-19T12:14:32.214Z,23.97
2018-10-19T12:17:00.656Z,21.33
2018-10-19T12:19:28.558Z,19.87
2018-10-19T12:21:56.554Z,19.17
2018-10-19T12:24:25.497Z,22.03
2018-10-19T12:26:54.005Z,18.17
2018-10-19T12:29:22.197Z,21.23
2018-10-19T12:31:50.126Z,27.77
2018-10-19T12:34:18.194Z,21.47
2018-10-19T12:36:46.266Z,23.67
2018-10-19T12:39:14.393Z,20.57
2018-10-19T12:41:42.605Z,18.50
2018-10-19T12:44:10.634Z,20.05
2018-10-19T12:46:51.242Z,17.23
2018-10-19T12:49:21.368Z,22.27
2018-10-19T12:51:49.441Z,20.13
2018-10-19T12:54:17.763Z,21.00
2018-10-19T12:56:45.672Z,16.43
2018-10-19T12:59:13.518Z,18.87
2018-10-19T13:01:41.623Z,18.20
2018-10-19T13:04:09.513Z,18.17
2018-10-19T13:06:37.605Z,17.00
2018-10-19T13:09:09.145Z,16.40
2018-10-19T13:11:37.182Z,17.00
2018-10-19T13:14:05.141Z,19.03
2018-10-19T13:16:33.017Z,16.15
2018-10-19T13:19:00.933Z,16.00
2018-10-19T13:21:28.840Z,15.63
2018-10-19T13:23:56.713Z,16.20
2018-10-19T13:26:24.772Z,19.97
2018-10-19T13:28:52.684Z,15.30
2018-10-19T13:31:20.515Z,17.33
2018-10-19T13:33:48.406Z,15.63
2018-10-19T13:36:16.256Z,15.90
2018-10-19T13:38:44.314Z,14.83
2018-10-19T13:41:12.398Z,12.80
2018-10-19T13:43:41.284Z,14.13
2018-10-19T13:46:09.564Z,7.37
2018-10-19T13:48:37.839Z,10.83
2018-10-19T13:51:06.186Z,11.87
2018-10-19T13:53:33.991Z,11.13
2018-10-19T13:56:01.813Z,13.63
2018-10-19T13:58:29.732Z,14.00
2018-10-19T14:00:57.594Z,14.43
2018-10-19T14:03:25.643Z,15.17
2018-10-19T14:05:53.765Z,13.00
2018-10-19T14:08:21.777Z,15.17
2018-10-19T14:10:49.854Z,14.33
2018-10-19T14:13:17.747Z,12.17
2018-10-19T14:15:45.597Z,15.27
2018-10-19T14:18:13.657Z,12.60
2018-10-19T14:20:41.493Z,13.53
2018-10-19T14:23:09.528Z,12.10
2018-10-19T14:25:38.081Z,11.07
2018-10-19T14:28:06.147Z,15.03
2018-10-19T14:30:34.231Z,12.30
2018-10-19T14:33:02.153Z,15.58
2018-10-19T14:35:30.145Z,12.63
2018-10-19T14:37:59.210Z,15.60
2018-10-19T14:40:27.114Z,10.67
2018-10-19T14:42:55.347Z,12.00
2018-10-19T14:45:23.464Z,11.40
2018-10-19T14:47:51.367Z,13.70
2018-10-19T14:50:19.631Z,11.50
2018-10-19T14:52:47.925Z,11.13
2018-10-19T14:55:17.400Z,8.23
2018-10-19T14:57:45.438Z,11.50
2018-10-19T15:00:15.878Z,10.80
2018-10-19T15:02:43.840Z,8.90
2018-10-19T15:05:13.513Z,9.80
2018-10-19T15:07:41.763Z,10.63
2018-10-19T15:10:12.281Z,10.07
2018-10-19T15:12:40.679Z,12.00
2018-10-19T15:15:10.307Z,12.03
2018-10-19T15:17:38.265Z,12.30
2018-10-19T15:20:06.709Z,12.83
2018-10-19T15:22:35.201Z,12.67
2018-10-19T15:25:03.520Z,12.23
2018-10-19T15:27:31.559Z,11.80
2018-10-19T15:29:59.478Z,13.37
2018-10-19T15:32:27.484Z,13.90
2018-10-19T15:34:55.764Z,10.70
2018-10-19T15:37:24.257Z,15.10
2018-10-19T15:39:52.321Z,9.87
2018-10-19T15:42:20.265Z,15.27
2018-10-19T15:44:48.097Z,14.97
2018-10-19T15:47:15.970Z,16.00
2018-10-19T15:49:44.286Z,16.23
2018-10-19T15:52:12.355Z,13.43
2018-10-19T15:54:40.207Z,15.57
2018-10-19T15:57:08.189Z,16.73
2018-10-19T15:59:37.174Z,15.83
2018-10-19T16:02:05.408Z,15.07
2018-10-19T16:04:33.348Z,16.83
2018-10-19T16:07:01.417Z,17.37
2018-10-19T16:09:29.326Z,15.30
2018-10-19T16:11:57.222Z,17.27
2018-10-19T16:14:25.396Z,17.07
2018-10-19T16:16:53.460Z,14.90
2018-10-19T16:19:23.481Z,15.37
2018-10-19T16:21:51.648Z,14.43
2018-10-19T16:24:20.718Z,12.37
2018-10-19T16:26:48.880Z,15.00
2018-10-19T16:29:17.908Z,11.93
2018-10-19T16:31:46.053Z,13.07
2018-10-19T16:34:14.045Z,18.20
2018-10-19T16:36:42.754Z,14.10
2018-10-19T16:39:11.113Z,13.03
2018-10-19T16:41:39.290Z,8.77
2018-10-19T16:44:07.389Z,10.20
2018-10-19T16:46:35.388Z,12.13
2018-10-19T16:49:03.680Z,11.57
2018-10-19T16:51:31.513Z,11.90
2018-10-19T16:53:59.558Z,12.77
2018-10-19T16:56:27.513Z,13.47
2018-10-19T16:58:55.393Z,11.07
2018-10-19T17:01:24.089Z,14.73
2018-10-19T17:03:52.004Z,16.07
2018-10-19T17:06:20.114Z,11.67
2018-10-19T17:08:48.209Z,17.23
2018-10-19T17:11:16.186Z,16.83
2018-10-19T17:13:44.236Z,12.07
2018-10-19T17:16:12.789Z,14.23
2018-10-19T17:18:40.877Z,13.70
2018-10-19T17:21:09.469Z,17.17
2018-10-19T17:23:37.578Z,16.33
2018-10-19T17:26:06.352Z,16.03
2018-10-19T17:28:34.844Z,16.53
2018-10-19T17:31:03.059Z,16.57
2018-10-19T17:33:31.141Z,19.30
2018-10-19T17:35:59.227Z,26.53
2018-10-19T17:38:27.172Z,23.23
2018-10-19T17:40:55.027Z,25.60
2018-10-19T17:43:22.961Z,23.00
2018-10-19T17:45:50.994Z,23.40
2018-10-19T17:48:18.847Z,30.63
2018-10-19T17:50:46.729Z,60.00
2018-10-19T17:53:14.788Z,85.07
2018-10-19T17:55:43.019Z,96.80
2018-10-19T17:58:10.966Z,86.53
2018-10-19T18:00:38.943Z,78.27
2018-10-19T18:03:07.185Z,51.83
2018-10-19T18:05:35.453Z,40.97
2018-10-19T18:08:03.515Z,29.20
2018-10-19T18:10:31.560Z,21.13
2018-10-19T18:12:59.404Z,30.43
2018-10-19T18:15:27.502Z,25.67
2018-10-19T18:17:55.565Z,21.10
2018-10-19T18:20:23.696Z,35.17
2018-10-19T18:22:52.021Z,41.10
2018-10-19T18:25:20.049Z,51.73
2018-10-19T18:27:49.170Z,60.40
2018-10-19T18:30:17.185Z,75.80
2018-10-19T18:32:45.014Z,57.00
2018-10-19T18:35:13.333Z,68.33
2018-10-19T18:37:41.623Z,62.27
2018-10-19T18:40:10.894Z,45.97
2018-10-19T18:42:38.933Z,44.77
2018-10-19T18:45:07.705Z,30.77
2018-10-19T18:47:36.141Z,26.57
2018-10-19T18:50:04.619Z,27.37
2018-10-19T18:52:32.418Z,25.73
2018-10-19T18:55:00.371Z,28.00
2018-10-19T18:57:28.429Z,25.03
2018-10-19T18:59:56.771Z,26.27
2018-10-19T19:02:25.023Z,22.60
2018-10-19T19:04:52.938Z,27.83
2018-10-19T19:07:20.835Z,35.67
2018-10-19T19:09:54.610Z,27.73
2018-10-19T19:12:22.721Z,23.93
2018-10-19T19:14:50.678Z,26.40
2018-10-19T19:17:18.739Z,27.30
2018-10-19T19:19:52.307Z,30.73
2018-10-19T19:22:20.189Z,29.80
2018-10-19T19:24:53.737Z,52.47
2018-10-19T19:27:21.867Z,47.73
2018-10-19T19:29:49.676Z,43.90
2018-10-19T19:32:17.615Z,54.23
2018-10-19T19:34:46.600Z,53.97
2018-10-19T19:37:14.472Z,58.97
2018-10-19T19:39:42.672Z,65.27
2018-10-19T19:42:16.343Z,64.00
2018-10-19T19:44:44.511Z,64.40
2018-10-19T19:47:16.884Z,60.03
2018-10-19T19:49:44.750Z,43.97
2018-10-19T19:52:15.885Z,46.93
2018-10-19T19:54:44.179Z,50.47
2018-10-19T19:57:12.213Z,45.57
2018-10-19T19:59:40.091Z,65.83
2018-10-19T20:02:08.023Z,58.00
2018-10-19T20:04:36.043Z,82.20
2018-10-19T20:07:04.099Z,57.43
2018-10-19T20:09:32.132Z,43.47
2018-10-19T20:12:00.018Z,53.20
2018-10-19T20:14:28.142Z,33.93
2018-10-19T20:16:56.195Z,34.00
2018-10-19T20:19:25.537Z,36.13
2018-10-19T20:21:53.590Z,39.57
2018-10-19T20:24:22.597Z,34.57
2018-10-19T20:26:50.560Z,39.63
2018-10-19T20:29:18.649Z,37.03
2018-10-19T20:31:46.892Z,34.40
2018-10-19T20:34:15.053Z,33.77
2018-10-19T20:36:44.252Z,60.67
2018-10-19T20:39:12.735Z,195.80
2018-10-19T20:41:41.000Z,109.10
2018-10-19T20:44:09.684Z,46.50
2018-10-19T20:46:37.980Z,54.43
2018-10-19T20:49:06.037Z,67.17
2018-10-19T20:51:34.985Z,75.10
2018-10-19T20:54:03.159Z,73.93
2018-10-19T20:56:31.398Z,80.57
2018-10-19T20:58:59.795Z,79.90
2018-10-19T21:01:27.932Z,82.93
2018-10-19T21:03:56.912Z,86.47
2018-10-19T21:06:24.931Z,75.03
2018-10-19T21:08:52.948Z,87.67
2018-10-19T21:11:20.991Z,100.97
2018-10-19T21:13:49.102Z,83.73
2018-10-19T21:16:17.069Z,97.30
2018-10-19T21:18:45.079Z,103.30
2018-10-19T21:21:13.002Z,119.17
2018-10-19T21:23:42.000Z,123.10
2018-10-19T21:26:10.198Z,124.00
2018-10-19T21:28:37.995Z,110.93
2018-10-19T21:31:07.054Z,102.10
2018-10-19T21:33:35.096Z,111.00
2018-10-19T21:36:03.337Z,106.27
2018-10-19T21:38:31.202Z,105.47
2018-10-19T21:40:59.327Z,102.57
2018-10-19T21:43:27.215Z,104.57
2018-10-19T21:45:55.189Z,107.33
2018-10-19T21:48:23.146Z,117.17
2018-10-19T21:50:51.195Z,118.17
2018-10-19T21:53:20.310Z,110.60
2018-10-19T21:55:48.145Z,106.50
2018-10-19T21:58:15.932Z,124.60
2018-10-19T22:00:43.888Z,128.90
2018-10-19T22:03:12.319Z,127.17
2018-10-19T22:05:40.440Z,133.13
2018-10-19T22:08:08.287Z,128.33
2018-10-19T22:10:36.352Z,125.17
2018-10-19T22:13:04.447Z,136.23
2018-10-19T22:15:32.303Z,134.30
2018-10-19T22:18:00.286Z,142.70
2018-10-19T22:20:28.169Z,117.40
2018-10-19T22:22:56.009Z,110.87
2018-10-19T22:25:24.014Z,121.43
2018-10-19T22:27:54.254Z,122.57
2018-10-19T22:30:22.497Z,120.07
2018-10-19T22:32:50.803Z,109.97
2018-10-19T22:35:18.837Z,115.73
2018-10-19T22:37:46.943Z,107.73
2018-10-19T22:40:15.067Z,121.80
2018-10-19T22:42:43.296Z,122.87
2018-10-19T22:45:11.375Z,136.10
2018-10-19T22:47:39.607Z,119.53
2018-10-19T22:50:08.123Z,130.73
2018-10-19T22:52:36.173Z,148.70
2018-10-19T22:55:04.576Z,142.67
2018-10-19T22:57:33.947Z,140.93
2018-10-19T23:00:02.412Z,136.87
2018-10-19T23:02:30.476Z,134.17
2018-10-19T23:04:58.421Z,133.67
2018-10-19T23:07:26.606Z,147.63
2018-10-19T23:09:54.906Z,137.87
2018-10-19T23:12:23.013Z,127.13
2018-10-19T23:14:51.119Z,155.20
2018-10-19T23:17:19.404Z,140.97
2018-10-19T23:19:47.621Z,150.03
2018-10-19T23:22:15.733Z,158.17
2018-10-19T23:24:43.773Z,173.00
2018-10-19T23:27:11.675Z,200.53
2018-10-19T23:29:45.565Z,181.63
2018-10-19T23:32:13.729Z,179.40
2018-10-19T23:34:43.743Z,177.43
2018-10-19T23:37:11.695Z,188.13
2018-10-19T23:39:39.532Z,187.27
2018-10-19T23:42:07.374Z,205.87
2018-10-19T23:44:35.325Z,187.17
2018-10-19T23:47:03.176Z,189.07
2018-10-19T23:49:32.318Z,193.97
2018-10-19T23:52:00.466Z,192.43
2018-10-19T23:54:29.558Z,196.80
2018-10-19T23:56:57.646Z,193.60
2018-10-19T23:59:25.764Z,210.20
